sensor_id;sensor_type;location;lat;lon;timestamp;pressure;altitude;pressure_sealevel;temperature;humidity
64967;BME280;51710;38.732;-121.358;2023-02-28T00:00:52;100703.50;;;8.09;88.27
64967;BME280;51710;38.732;-121.358;2023-02-28T00:03:18;100702.66;;;8.18;87.71
64967;BME280;51710;38.732;-121.358;2023-02-28T00:05:44;100701.28;;;8.24;88.12
64967;BME280;51710;38.732;-121.358;2023-02-28T00:08:13;100701.00;;;8.27;87.99
64967;BME280;51710;38.732;-121.358;2023-02-28T00:10:40;100696.00;;;8.24;87.89
64967;BME280;51710;38.732;-121.358;2023-02-28T00:13:11;100690.69;;;8.24;88.31
64967;BME280;51710;38.732;-121.358;2023-02-28T00:15:43;100695.84;;;8.25;88.31
64967;BME280;51710;38.732;-121.358;2023-02-28T00:18:15;100688.44;;;8.29;88.44
64967;BME280;51710;38.732;-121.358;2023-02-28T00:20:42;100696.25;;;8.30;88.12
64967;BME280;51710;38.732;-121.358;2023-02-28T00:23:09;100702.69;;;8.28;87.78
64967;BME280;51710;38.732;-121.358;2023-02-28T00:25:35;100703.38;;;8.20;87.67
64967;BME280;51710;38.732;-121.358;2023-02-28T00:28:01;100706.88;;;8.11;87.66
64967;BME280;51710;38.732;-121.358;2023-02-28T00:30:28;100715.56;;;8.04;87.66
64967;BME280;51710;38.732;-121.358;2023-02-28T00:32:54;100732.41;;;8.02;87.76
64967;BME280;51710;38.732;-121.358;2023-02-28T00:35:20;100720.97;;;8.02;88.26
64967;BME280;51710;38.732;-121.358;2023-02-28T00:37:48;100735.22;;;8.11;88.55
64967;BME280;51710;38.732;-121.358;2023-02-28T00:40:15;100745.09;;;8.18;88.10
64967;BME280;51710;38.732;-121.358;2023-02-28T00:42:41;100761.88;;;8.28;88.66
64967;BME280;51710;38.732;-121.358;2023-02-28T00:45:08;100764.97;;;8.33;88.46
64967;BME280;51710;38.732;-121.358;2023-02-28T00:47:34;100768.03;;;8.38;88.61
64967;BME280;51710;38.732;-121.358;2023-02-28T00:50:01;100762.56;;;8.40;87.80
64967;BME280;51710;38.732;-121.358;2023-02-28T00:52:34;100773.31;;;8.38;88.06
64967;BME280;51710;38.732;-121.358;2023-02-28T00:55:03;100782.94;;;8.39;87.16
64967;BME280;51710;38.732;-121.358;2023-02-28T00:57:29;100785.19;;;8.34;86.66
64967;BME280;51710;38.732;-121.358;2023-02-28T00:59:55;100776.69;;;8.31;86.76
64967;BME280;51710;38.732;-121.358;2023-02-28T01:02:22;100776.13;;;8.27;86.13
64967;BME280;51710;38.732;-121.358;2023-02-28T01:04:49;100776.53;;;8.23;85.56
64967;BME280;51710;38.732;-121.358;2023-02-28T01:07:15;100774.56;;;8.15;85.74
64967;BME280;51710;38.732;-121.358;2023-02-28T01:09:42;100782.81;;;8.12;86.05
64967;BME280;51710;38.732;-121.358;2023-02-28T01:12:09;100771.50;;;8.10;85.98
64967;BME280;51710;38.732;-121.358;2023-02-28T01:14:35;100763.41;;;8.12;86.21
64967;BME280;51710;38.732;-121.358;2023-02-28T01:17:01;100767.59;;;8.14;85.93
64967;BME280;51710;38.732;-121.358;2023-02-28T01:19:28;100762.31;;;8.14;85.86
64967;BME280;51710;38.732;-121.358;2023-02-28T01:21:54;100761.59;;;8.12;85.37
64967;BME280;51710;38.732;-121.358;2023-02-28T01:24:20;100775.00;;;8.11;85.27
64967;BME280;51710;38.732;-121.358;2023-02-28T01:26:46;100763.56;;;8.10;85.70
64967;BME280;51710;38.732;-121.358;2023-02-28T01:29:13;100772.59;;;8.08;85.09
64967;BME280;51710;38.732;-121.358;2023-02-28T01:31:39;100760.19;;;8.08;85.57
64967;BME280;51710;38.732;-121.358;2023-02-28T01:34:05;100756.56;;;8.09;85.41
64967;BME280;51710;38.732;-121.358;2023-02-28T01:36:32;100760.19;;;8.08;84.72
64967;BME280;51710;38.732;-121.358;2023-02-28T01:38:58;100756.13;;;8.04;85.35
64967;BME280;51710;38.732;-121.358;2023-02-28T01:41:29;100764.25;;;8.02;84.99
64967;BME280;51710;38.732;-121.358;2023-02-28T01:44:05;100762.72;;;8.00;84.85
64967;BME280;51710;38.732;-121.358;2023-02-28T01:46:34;100769.97;;;7.98;84.91
64967;BME280;51710;38.732;-121.358;2023-02-28T01:51:41;100777.94;;;7.98;85.18
64967;BME280;51710;38.732;-121.358;2023-02-28T01:54:23;100779.72;;;7.97;84.57
64967;BME280;51710;38.732;-121.358;2023-02-28T01:56:58;100778.06;;;7.96;84.07
64967;BME280;51710;38.732;-121.358;2023-02-28T02:01:58;100795.94;;;7.94;83.59
64967;BME280;51710;38.732;-121.358;2023-02-28T02:04:31;100804.03;;;7.93;83.55
64967;BME280;51710;38.732;-121.358;2023-02-28T02:06:59;100812.94;;;7.92;83.54
64967;BME280;51710;38.732;-121.358;2023-02-28T02:09:25;100818.25;;;7.92;83.71
64967;BME280;51710;38.732;-121.358;2023-02-28T02:11:52;100818.25;;;7.92;83.21
64967;BME280;51710;38.732;-121.358;2023-02-28T02:14:31;100829.84;;;7.91;82.99
64967;BME280;51710;38.732;-121.358;2023-02-28T02:17:26;100828.97;;;7.90;83.47
64967;BME280;51710;38.732;-121.358;2023-02-28T02:43:19;100857.16;;;7.82;82.43
64967;BME280;51710;38.732;-121.358;2023-02-28T02:45:55;100861.19;;;7.76;81.82
64967;BME280;51710;38.732;-121.358;2023-02-28T02:48:26;100880.16;;;7.72;82.18
64967;BME280;51710;38.732;-121.358;2023-02-28T02:51:03;100876.22;;;7.66;82.23
64967;BME280;51710;38.732;-121.358;2023-02-28T02:53:46;100875.94;;;7.60;81.85
64967;BME280;51710;38.732;-121.358;2023-02-28T02:56:17;100876.47;;;7.54;81.93
64967;BME280;51710;38.732;-121.358;2023-02-28T02:58:47;100877.97;;;7.47;82.51
64967;BME280;51710;38.732;-121.358;2023-02-28T03:01:18;100873.22;;;7.41;82.33
64967;BME280;51710;38.732;-121.358;2023-02-28T03:04:04;100881.94;;;7.32;82.27
64967;BME280;51710;38.732;-121.358;2023-02-28T03:06:31;100880.81;;;7.25;82.46
64967;BME280;51710;38.732;-121.358;2023-02-28T03:09:00;100880.59;;;7.17;82.46
64967;BME280;51710;38.732;-121.358;2023-02-28T03:11:26;100887.16;;;7.13;82.45
64967;BME280;51710;38.732;-121.358;2023-02-28T03:14:24;100883.78;;;7.11;83.17
64967;BME280;51710;38.732;-121.358;2023-02-28T03:17:02;100893.53;;;7.10;82.45
64967;BME280;51710;38.732;-121.358;2023-02-28T03:25:16;100912.59;;;7.04;82.90
64967;BME280;51710;38.732;-121.358;2023-02-28T03:28:03;100925.00;;;7.04;82.91
64967;BME280;51710;38.732;-121.358;2023-02-28T03:30:46;100914.53;;;7.02;82.51
64967;BME280;51710;38.732;-121.358;2023-02-28T03:33:41;100915.25;;;7.04;82.71
64967;BME280;51710;38.732;-121.358;2023-02-28T03:36:16;100913.56;;;7.03;82.88
64967;BME280;51710;38.732;-121.358;2023-02-28T03:39:04;100919.25;;;6.99;82.86
64967;BME280;51710;38.732;-121.358;2023-02-28T03:41:41;100928.16;;;6.98;82.46
64967;BME280;51710;38.732;-121.358;2023-02-28T03:44:33;100934.44;;;6.97;82.26
64967;BME280;51710;38.732;-121.358;2023-02-28T03:47:16;100940.94;;;6.93;82.27
64967;BME280;51710;38.732;-121.358;2023-02-28T03:50:13;100953.44;;;6.91;82.25
64967;BME280;51710;38.732;-121.358;2023-02-28T03:55:20;100941.19;;;6.90;81.84
64967;BME280;51710;38.732;-121.358;2023-02-28T03:58:01;100943.84;;;6.90;82.14
64967;BME280;51710;38.732;-121.358;2023-02-28T04:00:38;100942.75;;;6.92;81.82
64967;BME280;51710;38.732;-121.358;2023-02-28T04:03:06;100947.22;;;6.92;81.71
64967;BME280;51710;38.732;-121.358;2023-02-28T04:05:32;100955.16;;;6.92;81.33
64967;BME280;51710;38.732;-121.358;2023-02-28T04:08:07;100960.94;;;6.85;81.38
64967;BME280;51710;38.732;-121.358;2023-02-28T04:10:33;100964.44;;;6.86;81.08
64967;BME280;51710;38.732;-121.358;2023-02-28T04:13:00;100973.47;;;6.83;81.28
64967;BME280;51710;38.732;-121.358;2023-02-28T04:15:26;100974.44;;;6.82;81.28
64967;BME280;51710;38.732;-121.358;2023-02-28T04:17:53;100980.00;;;6.79;80.95
64967;BME280;51710;38.732;-121.358;2023-02-28T04:20:19;100973.00;;;6.78;80.98
64967;BME280;51710;38.732;-121.358;2023-02-28T04:22:45;100974.84;;;6.78;81.06
64967;BME280;51710;38.732;-121.358;2023-02-28T04:25:12;100983.72;;;6.77;81.31
64967;BME280;51710;38.732;-121.358;2023-02-28T04:27:38;100988.16;;;6.76;81.23
64967;BME280;51710;38.732;-121.358;2023-02-28T04:30:05;100987.47;;;6.74;80.81
64967;BME280;51710;38.732;-121.358;2023-02-28T04:32:34;100991.06;;;6.73;81.02
64967;BME280;51710;38.732;-121.358;2023-02-28T04:35:00;100996.50;;;6.72;80.95
64967;BME280;51710;38.732;-121.358;2023-02-28T04:37:26;100996.63;;;6.70;80.62
64967;BME280;51710;38.732;-121.358;2023-02-28T04:39:54;100994.91;;;6.69;80.75
64967;BME280;51710;38.732;-121.358;2023-02-28T04:42:20;100997.69;;;6.68;80.76
64967;BME280;51710;38.732;-121.358;2023-02-28T04:44:47;101002.41;;;6.64;81.00
64967;BME280;51710;38.732;-121.358;2023-02-28T04:47:13;100999.06;;;6.62;81.04
64967;BME280;51710;38.732;-121.358;2023-02-28T04:49:39;101011.56;;;6.60;81.11
64967;BME280;51710;38.732;-121.358;2023-02-28T04:52:07;101010.84;;;6.58;80.97
64967;BME280;51710;38.732;-121.358;2023-02-28T04:54:33;101017.34;;;6.54;80.52
64967;BME280;51710;38.732;-121.358;2023-02-28T04:56:59;101014.84;;;6.53;80.91
64967;BME280;51710;38.732;-121.358;2023-02-28T04:59:27;101021.19;;;6.50;80.74
64967;BME280;51710;38.732;-121.358;2023-02-28T05:01:53;101029.25;;;6.49;80.05
64967;BME280;51710;38.732;-121.358;2023-02-28T05:04:19;101033.72;;;6.48;80.75
64967;BME280;51710;38.732;-121.358;2023-02-28T05:06:46;101029.38;;;6.47;80.07
64967;BME280;51710;38.732;-121.358;2023-02-28T05:09:12;101034.69;;;6.47;79.86
64967;BME280;51710;38.732;-121.358;2023-02-28T05:11:39;101039.13;;;6.47;80.20
64967;BME280;51710;38.732;-121.358;2023-02-28T05:14:10;101039.25;;;6.45;79.93
64967;BME280;51710;38.732;-121.358;2023-02-28T05:16:37;101043.72;;;6.45;80.09
64967;BME280;51710;38.732;-121.358;2023-02-28T05:19:04;101046.25;;;6.46;80.29
64967;BME280;51710;38.732;-121.358;2023-02-28T05:21:31;101049.81;;;6.45;80.08
64967;BME280;51710;38.732;-121.358;2023-02-28T05:24:00;101042.16;;;6.42;80.36
64967;BME280;51710;38.732;-121.358;2023-02-28T05:26:28;101044.78;;;6.42;80.57
64967;BME280;51710;38.732;-121.358;2023-02-28T05:28:55;101037.84;;;6.41;80.65
64967;BME280;51710;38.732;-121.358;2023-02-28T05:31:22;101045.88;;;6.40;80.54
64967;BME280;51710;38.732;-121.358;2023-02-28T05:33:48;101048.63;;;6.38;80.67
64967;BME280;51710;38.732;-121.358;2023-02-28T05:36:15;101040.69;;;6.38;80.93
64967;BME280;51710;38.732;-121.358;2023-02-28T05:38:41;101044.31;;;6.37;80.32
64967;BME280;51710;38.732;-121.358;2023-02-28T05:41:09;101047.91;;;6.36;80.48
64967;BME280;51710;38.732;-121.358;2023-02-28T05:43:37;101042.88;;;6.33;81.03
64967;BME280;51710;38.732;-121.358;2023-02-28T05:46:05;101054.44;;;6.32;80.96
64967;BME280;51710;38.732;-121.358;2023-02-28T05:48:32;101061.38;;;6.33;80.70
64967;BME280;51710;38.732;-121.358;2023-02-28T05:50:59;101070.03;;;6.35;81.14
64967;BME280;51710;38.732;-121.358;2023-02-28T05:53:25;101063.56;;;6.39;81.07
64967;BME280;51710;38.732;-121.358;2023-02-28T05:55:52;101074.00;;;6.41;80.57
64967;BME280;51710;38.732;-121.358;2023-02-28T05:58:18;101075.56;;;6.43;81.13
64967;BME280;51710;38.732;-121.358;2023-02-28T06:00:45;101082.41;;;6.46;80.88
64967;BME280;51710;38.732;-121.358;2023-02-28T06:03:11;101083.00;;;6.49;80.82
64967;BME280;51710;38.732;-121.358;2023-02-28T06:05:37;101087.22;;;6.52;81.20
64967;BME280;51710;38.732;-121.358;2023-02-28T06:08:04;101092.41;;;6.53;80.62
64967;BME280;51710;38.732;-121.358;2023-02-28T06:10:36;101092.88;;;6.58;80.93
64967;BME280;51710;38.732;-121.358;2023-02-28T06:13:04;101097.91;;;6.61;80.76
64967;BME280;51710;38.732;-121.358;2023-02-28T06:15:30;101099.59;;;6.62;80.70
64967;BME280;51710;38.732;-121.358;2023-02-28T06:17:57;101098.50;;;6.65;80.62
64967;BME280;51710;38.732;-121.358;2023-02-28T06:20:26;101103.78;;;6.65;80.93
64967;BME280;51710;38.732;-121.358;2023-02-28T06:22:58;101103.78;;;6.65;80.55
64967;BME280;51710;38.732;-121.358;2023-02-28T06:25:25;101107.16;;;6.67;81.27
64967;BME280;51710;38.732;-121.358;2023-02-28T06:27:53;101106.31;;;6.66;80.67
64967;BME280;51710;38.732;-121.358;2023-02-28T06:30:19;101109.94;;;6.65;80.75
64967;BME280;51710;38.732;-121.358;2023-02-28T06:32:50;101108.50;;;6.61;80.67
64967;BME280;51710;38.732;-121.358;2023-02-28T06:35:17;101106.81;;;6.60;80.75
64967;BME280;51710;38.732;-121.358;2023-02-28T06:37:44;101118.22;;;6.61;80.62
64967;BME280;51710;38.732;-121.358;2023-02-28T06:40:11;101118.13;;;6.62;80.84
64967;BME280;51710;38.732;-121.358;2023-02-28T06:42:38;101127.72;;;6.63;80.81
64967;BME280;51710;38.732;-121.358;2023-02-28T06:45:05;101120.78;;;6.62;80.99
64967;BME280;51710;38.732;-121.358;2023-02-28T06:47:36;101131.34;;;6.62;80.36
64967;BME280;51710;38.732;-121.358;2023-02-28T06:50:03;101129.66;;;6.61;80.51
64967;BME280;51710;38.732;-121.358;2023-02-28T06:52:30;101124.25;;;6.63;80.52
64967;BME280;51710;38.732;-121.358;2023-02-28T06:54:56;101131.34;;;6.62;80.73
64967;BME280;51710;38.732;-121.358;2023-02-28T06:57:32;101146.38;;;6.62;80.61
64967;BME280;51710;38.732;-121.358;2023-02-28T07:00:00;101144.34;;;6.65;80.60
64967;BME280;51710;38.732;-121.358;2023-02-28T07:02:28;101143.59;;;6.63;80.63
64967;BME280;51710;38.732;-121.358;2023-02-28T07:04:55;101141.94;;;6.62;80.61
64967;BME280;51710;38.732;-121.358;2023-02-28T07:07:21;101139.38;;;6.61;80.29
64967;BME280;51710;38.732;-121.358;2023-02-28T07:09:47;101140.84;;;6.54;80.62
64967;BME280;51710;38.732;-121.358;2023-02-28T07:12:13;101141.22;;;6.49;80.45
64967;BME280;51710;38.732;-121.358;2023-02-28T07:14:40;101132.81;;;6.44;80.45
64967;BME280;51710;38.732;-121.358;2023-02-28T07:17:10;101136.63;;;6.40;80.96
64967;BME280;51710;38.732;-121.358;2023-02-28T07:19:40;101135.19;;;6.36;80.64
64967;BME280;51710;38.732;-121.358;2023-02-28T07:22:07;101140.72;;;6.33;80.99
64967;BME280;51710;38.732;-121.358;2023-02-28T07:24:33;101149.88;;;6.29;80.62
64967;BME280;51710;38.732;-121.358;2023-02-28T07:27:00;101141.34;;;6.26;80.95
64967;BME280;51710;38.732;-121.358;2023-02-28T07:29:27;101140.63;;;6.24;80.72
64967;BME280;51710;38.732;-121.358;2023-02-28T07:31:53;101146.13;;;6.21;81.57
64967;BME280;51710;38.732;-121.358;2023-02-28T07:34:20;101140.97;;;6.19;81.39
64967;BME280;51710;38.732;-121.358;2023-02-28T07:36:47;101141.06;;;6.18;81.18
64967;BME280;51710;38.732;-121.358;2023-02-28T07:39:13;101145.63;;;6.16;81.41
64967;BME280;51710;38.732;-121.358;2023-02-28T07:41:39;101140.47;;;6.14;81.28
64967;BME280;51710;38.732;-121.358;2023-02-28T07:44:12;101143.38;;;6.11;81.37
64967;BME280;51710;38.732;-121.358;2023-02-28T07:46:38;101142.63;;;6.09;81.52
64967;BME280;51710;38.732;-121.358;2023-02-28T07:49:06;101144.53;;;6.07;81.31
64967;BME280;51710;38.732;-121.358;2023-02-28T07:51:33;101144.53;;;6.07;81.39
64967;BME280;51710;38.732;-121.358;2023-02-28T07:53:59;101147.56;;;6.03;81.25
64967;BME280;51710;38.732;-121.358;2023-02-28T07:56:25;101143.13;;;6.03;81.72
64967;BME280;51710;38.732;-121.358;2023-02-28T07:58:52;101145.03;;;6.01;81.31
64967;BME280;51710;38.732;-121.358;2023-02-28T08:01:18;101131.94;;;6.00;81.82
64967;BME280;51710;38.732;-121.358;2023-02-28T08:03:45;101149.47;;;6.01;81.46
64967;BME280;51710;38.732;-121.358;2023-02-28T08:06:22;101146.94;;;5.99;81.51
64967;BME280;51710;38.732;-121.358;2023-02-28T08:08:49;101142.50;;;6.00;81.61
64967;BME280;51710;38.732;-121.358;2023-02-28T08:11:16;101142.50;;;6.00;81.91
64967;BME280;51710;38.732;-121.358;2023-02-28T08:13:43;101154.16;;;5.97;81.95
64967;BME280;51710;38.732;-121.358;2023-02-28T08:16:11;101163.06;;;5.96;82.08
64967;BME280;51710;38.732;-121.358;2023-02-28T08:18:40;101167.38;;;5.97;81.79
64967;BME280;51710;38.732;-121.358;2023-02-28T08:21:08;101164.00;;;5.95;81.88
64967;BME280;51710;38.732;-121.358;2023-02-28T08:23:34;101168.53;;;5.93;82.12
64967;BME280;51710;38.732;-121.358;2023-02-28T08:26:01;101166.88;;;5.92;82.30
64967;BME280;51710;38.732;-121.358;2023-02-28T08:28:27;101161.59;;;5.92;82.13
64967;BME280;51710;38.732;-121.358;2023-02-28T08:30:54;101172.16;;;5.92;82.08
64967;BME280;51710;38.732;-121.358;2023-02-28T08:33:21;101166.16;;;5.90;82.28
64967;BME280;51710;38.732;-121.358;2023-02-28T08:35:48;101168.19;;;5.87;82.36
64967;BME280;51710;38.732;-121.358;2023-02-28T08:38:14;101163.88;;;5.86;83.14
64967;BME280;51710;38.732;-121.358;2023-02-28T08:40:40;101162.28;;;5.83;82.31
64967;BME280;51710;38.732;-121.358;2023-02-28T08:43:07;101174.72;;;5.81;82.49
64967;BME280;51710;38.732;-121.358;2023-02-28T08:45:33;101156.25;;;5.81;82.76
64967;BME280;51710;38.732;-121.358;2023-02-28T08:47:59;101162.50;;;5.80;83.07
64967;BME280;51710;38.732;-121.358;2023-02-28T08:50:26;101167.78;;;5.80;82.87
64967;BME280;51710;38.732;-121.358;2023-02-28T08:52:52;101169.69;;;5.78;83.04
64967;BME280;51710;38.732;-121.358;2023-02-28T08:55:18;101165.34;;;5.77;83.24
64967;BME280;51710;38.732;-121.358;2023-02-28T08:57:44;101161.88;;;5.77;83.11
64967;BME280;51710;38.732;-121.358;2023-02-28T09:00:11;101158.38;;;5.76;83.13
64967;BME280;51710;38.732;-121.358;2023-02-28T09:02:40;101169.69;;;5.78;83.56
64967;BME280;51710;38.732;-121.358;2023-02-28T09:05:06;101159.34;;;5.75;83.51
64967;BME280;51710;38.732;-121.358;2023-02-28T09:07:34;101155.75;;;5.76;83.58
64967;BME280;51710;38.732;-121.358;2023-02-28T09:10:00;101165.72;;;5.72;83.48
64967;BME280;51710;38.732;-121.358;2023-02-28T09:12:27;101169.44;;;5.70;83.99
64967;BME280;51710;38.732;-121.358;2023-02-28T09:14:58;101166.78;;;5.70;83.81
64967;BME280;51710;38.732;-121.358;2023-02-28T09:17:24;101180.94;;;5.69;83.66
64967;BME280;51710;38.732;-121.358;2023-02-28T09:19:50;101180.09;;;5.68;83.93
64967;BME280;51710;38.732;-121.358;2023-02-28T09:22:17;101174.09;;;5.66;84.24
64967;BME280;51710;38.732;-121.358;2023-02-28T09:24:43;101174.19;;;5.65;83.82
64967;BME280;51710;38.732;-121.358;2023-02-28T09:27:10;101176.13;;;5.63;84.43
64967;BME280;51710;38.732;-121.358;2023-02-28T09:29:37;101172.75;;;5.61;84.20
64967;BME280;51710;38.732;-121.358;2023-02-28T09:32:03;101166.63;;;5.60;84.01
64967;BME280;51710;38.732;-121.358;2023-02-28T09:34:31;101160.50;;;5.60;84.22
64967;BME280;51710;38.732;-121.358;2023-02-28T09:36:57;101159.88;;;5.56;84.35
64967;BME280;51710;38.732;-121.358;2023-02-28T09:39:24;101155.69;;;5.54;84.31
64967;BME280;51710;38.732;-121.358;2023-02-28T09:41:53;101151.47;;;5.51;84.52
64967;BME280;51710;38.732;-121.358;2023-02-28T09:47:07;101150.00;;;5.47;84.62
64967;BME280;51710;38.732;-121.358;2023-02-28T09:49:40;101151.69;;;5.48;84.38
64967;BME280;51710;38.732;-121.358;2023-02-28T09:52:15;101145.56;;;5.48;84.35
64967;BME280;51710;38.732;-121.358;2023-02-28T09:54:43;101130.56;;;5.48;84.39
64967;BME280;51710;38.732;-121.358;2023-02-28T09:57:32;101119.16;;;5.48;84.78
64967;BME280;51710;38.732;-121.358;2023-02-28T10:00:15;101122.53;;;5.50;85.00
64967;BME280;51710;38.732;-121.358;2023-02-28T10:02:49;101127.56;;;5.53;85.02
64967;BME280;51710;38.732;-121.358;2023-02-28T10:10:40;101130.34;;;5.51;84.59
64967;BME280;51710;38.732;-121.358;2023-02-28T10:13:33;101132.03;;;5.52;85.01
64967;BME280;51710;38.732;-121.358;2023-02-28T10:16:11;101127.56;;;5.53;84.97
64967;BME280;51710;38.732;-121.358;2023-02-28T10:19:11;101135.63;;;5.51;85.50
64967;BME280;51710;38.732;-121.358;2023-02-28T10:21:43;101141.75;;;5.52;85.17
64967;BME280;51710;38.732;-121.358;2023-02-28T10:24:29;101127.81;;;5.50;85.58
64967;BME280;51710;38.732;-121.358;2023-02-28T10:27:00;101133.09;;;5.50;85.13
64967;BME280;51710;38.732;-121.358;2023-02-28T10:29:28;101117.25;;;5.50;85.44
64967;BME280;51710;38.732;-121.358;2023-02-28T10:31:59;101119.88;;;5.50;85.47
64967;BME280;51710;38.732;-121.358;2023-02-28T10:34:27;101116.28;;;5.51;85.61
64967;BME280;51710;38.732;-121.358;2023-02-28T10:36:53;101119.78;;;5.51;85.85
64967;BME280;51710;38.732;-121.358;2023-02-28T10:39:40;101124.31;;;5.49;85.74
64967;BME280;51710;38.732;-121.358;2023-02-28T10:42:25;101135.00;;;5.48;85.98
64967;BME280;51710;38.732;-121.358;2023-02-28T10:45:13;101121.56;;;5.51;85.57
64967;BME280;51710;38.732;-121.358;2023-02-28T10:48:06;101116.19;;;5.52;85.62
64967;BME280;51710;38.732;-121.358;2023-02-28T10:53:32;101117.00;;;5.53;85.99
64967;BME280;51710;38.732;-121.358;2023-02-28T10:56:00;101124.81;;;5.54;85.83
64967;BME280;51710;38.732;-121.358;2023-02-28T11:01:24;101112.47;;;5.55;85.63
64967;BME280;51710;38.732;-121.358;2023-02-28T11:03:52;101105.38;;;5.55;86.16
64967;BME280;51710;38.732;-121.358;2023-02-28T11:06:25;101111.53;;;5.56;86.09
64967;BME280;51710;38.732;-121.358;2023-02-28T11:09:03;101106.94;;;5.58;86.06
64967;BME280;51710;38.732;-121.358;2023-02-28T11:11:44;101108.63;;;5.59;85.75
64967;BME280;51710;38.732;-121.358;2023-02-28T11:14:24;101104.19;;;5.59;85.59
64967;BME280;51710;38.732;-121.358;2023-02-28T11:16:52;101095.19;;;5.62;86.16
64967;BME280;51710;38.732;-121.358;2023-02-28T11:19:22;101091.59;;;5.63;85.98
64967;BME280;51710;38.732;-121.358;2023-02-28T11:22:08;101084.38;;;5.65;85.93
64967;BME280;51710;38.732;-121.358;2023-02-28T11:24:45;101094.75;;;5.68;86.11
64967;BME280;51710;38.732;-121.358;2023-02-28T11:30:03;101091.50;;;5.75;86.13
64967;BME280;51710;38.732;-121.358;2023-02-28T11:32:30;101095.72;;;5.78;85.59
64967;BME280;51710;38.732;-121.358;2023-02-28T11:37:40;101102.44;;;5.82;85.74
64967;BME280;51710;38.732;-121.358;2023-02-28T11:40:15;101095.25;;;5.84;85.82
64967;BME280;51710;38.732;-121.358;2023-02-28T11:45:49;101098.16;;;5.92;85.12
64967;BME280;51710;38.732;-121.358;2023-02-28T12:07:47;101077.53;;;6.08;84.11
64967;BME280;51710;38.732;-121.358;2023-02-28T12:10:25;101066.94;;;6.08;83.96
64967;BME280;51710;38.732;-121.358;2023-02-28T12:13:04;101070.78;;;6.04;84.06
64967;BME280;51710;38.732;-121.358;2023-02-28T12:18:42;101066.34;;;6.05;84.57
64967;BME280;51710;38.732;-121.358;2023-02-28T12:26:49;101047.25;;;6.01;84.02
64967;BME280;51710;38.732;-121.358;2023-02-28T12:29:22;101033.91;;;6.03;84.64
64967;BME280;51710;38.732;-121.358;2023-02-28T12:34:48;101033.06;;;6.02;84.86
64967;BME280;51710;38.732;-121.358;2023-02-28T12:37:25;101029.56;;;6.02;84.24
64967;BME280;51710;38.732;-121.358;2023-02-28T12:40:01;101031.13;;;6.04;84.87
64967;BME280;51710;38.732;-121.358;2023-02-28T12:42:36;101037.88;;;6.08;84.73
64967;BME280;51710;38.732;-121.358;2023-02-28T12:45:10;101029.81;;;6.10;84.81
64967;BME280;51710;38.732;-121.358;2023-02-28T12:47:40;101029.69;;;6.11;84.68
64967;BME280;51710;38.732;-121.358;2023-02-28T12:50:10;101024.16;;;6.14;84.60
64967;BME280;51710;38.732;-121.358;2023-02-28T12:55:52;101027.53;;;6.16;84.77
64967;BME280;51710;38.732;-121.358;2023-02-28T12:58:43;101024.88;;;6.16;85.02
64967;BME280;51710;38.732;-121.358;2023-02-28T13:01:40;101026.44;;;6.19;84.85
64967;BME280;51710;38.732;-121.358;2023-02-28T13:09:35;101017.88;;;6.26;85.58
64967;BME280;51710;38.732;-121.358;2023-02-28T13:12:01;101008.75;;;6.30;85.27
64967;BME280;51710;38.732;-121.358;2023-02-28T13:14:38;101006.84;;;6.32;85.23
64967;BME280;51710;38.732;-121.358;2023-02-28T13:19:57;100974.59;;;6.38;85.64
64967;BME280;51710;38.732;-121.358;2023-02-28T13:22:52;100972.53;;;6.42;85.64
64967;BME280;51710;38.732;-121.358;2023-02-28T13:27:50;100974.94;;;6.45;85.35
64967;BME280;51710;38.732;-121.358;2023-02-28T13:33:29;100964.13;;;6.48;84.78
64967;BME280;51710;38.732;-121.358;2023-02-28T13:36:22;100956.91;;;6.50;84.45
64967;BME280;51710;38.732;-121.358;2023-02-28T13:38:50;100939.19;;;6.50;84.80
64967;BME280;51710;38.732;-121.358;2023-02-28T13:44:15;100960.00;;;6.55;84.63
64967;BME280;51710;38.732;-121.358;2023-02-28T14:05:41;100938.69;;;6.67;84.04
64967;BME280;51710;38.732;-121.358;2023-02-28T14:08:15;100934.19;;;6.68;83.95
64967;BME280;51710;38.732;-121.358;2023-02-28T14:10:49;100934.78;;;6.71;84.45
64967;BME280;51710;38.732;-121.358;2023-02-28T14:16:01;100920.34;;;6.75;84.36
64967;BME280;51710;38.732;-121.358;2023-02-28T14:18:36;100919.50;;;6.75;83.92
64967;BME280;51710;38.732;-121.358;2023-02-28T14:21:26;100906.97;;;6.77;84.02
64967;BME280;51710;38.732;-121.358;2023-02-28T14:27:29;100898.19;;;6.76;83.82
64967;BME280;51710;38.732;-121.358;2023-02-28T14:36:35;100906.72;;;6.80;84.37
64967;BME280;51710;38.732;-121.358;2023-02-28T14:39:19;100896.72;;;6.83;83.76
64967;BME280;51710;38.732;-121.358;2023-02-28T14:41:46;100891.41;;;6.83;83.75
64967;BME280;51710;38.732;-121.358;2023-02-28T14:44:27;100907.28;;;6.83;83.65
64967;BME280;51710;38.732;-121.358;2023-02-28T14:46:56;100878.91;;;6.85;83.91
64967;BME280;51710;38.732;-121.358;2023-02-28T14:49:37;100877.94;;;6.87;83.84
64967;BME280;51710;38.732;-121.358;2023-02-28T14:54:40;100875.88;;;6.90;83.71
64967;BME280;51710;38.732;-121.358;2023-02-28T14:57:27;100867.09;;;6.90;83.65
64967;BME280;51710;38.732;-121.358;2023-02-28T15:02:37;100886.47;;;6.90;84.06
64967;BME280;51710;38.732;-121.358;2023-02-28T15:05:22;100882.97;;;6.90;83.97
64967;BME280;51710;38.732;-121.358;2023-02-28T15:07:59;100878.38;;;6.92;84.14
64967;BME280;51710;38.732;-121.358;2023-02-28T15:10:27;100874.75;;;6.93;84.46
64967;BME280;51710;38.732;-121.358;2023-02-28T15:12:56;100871.31;;;6.92;84.30
64967;BME280;51710;38.732;-121.358;2023-02-28T15:15:27;100879.09;;;6.94;84.00